createdAt,value
2022-08-17T00:00:34.281Z,100724.16
2022-08-17T00:03:09.056Z,100729.50
2022-08-17T00:05:44.547Z,100699.72
2022-08-17T00:08:15.580Z,100735.78
2022-08-17T00:10:45.360Z,100726.13
2022-08-17T00:13:15.974Z,100734.13
2022-08-17T00:15:44.963Z,100704.28
2022-08-17T00:19:01.411Z,100724.50
2022-08-17T00:21:02.987Z,100727.97
2022-08-17T00:23:33.030Z,100728.06
2022-08-17T00:26:01.106Z,100733.41
2022-08-17T00:28:29.374Z,100731.72
2022-08-17T00:31:01.243Z,100740.69
2022-08-17T00:33:32.986Z,100737.13
2022-08-17T00:36:02.014Z,100685.34
2022-08-17T00:38:30.896Z,100734.56
2022-08-17T00:41:03.612Z,100727.47
2022-08-17T00:43:36.029Z,100725.78
2022-08-17T00:46:08.222Z,100703.03
2022-08-17T00:48:36.841Z,100732.13
2022-08-17T00:51:10.848Z,100728.59
2022-08-17T00:53:41.993Z,100667.09
2022-08-17T00:56:16.103Z,100730.50
2022-08-17T00:58:44.314Z,100741.94
2022-08-17T01:01:21.820Z,100740.22
2022-08-17T01:03:52.284Z,100741.16
2022-08-17T01:06:22.149Z,100743.00
2022-08-17T01:08:57.753Z,100682.34
2022-08-17T01:11:28.358Z,100751.03
2022-08-17T01:13:56.361Z,100746.63
2022-08-17T01:16:27.001Z,100736.88
2022-08-17T01:18:58.333Z,100721.94
2022-08-17T01:21:33.800Z,100739.56
2022-08-17T01:24:04.681Z,100739.56
2022-08-17T01:26:34.314Z,100739.56
2022-08-17T01:29:04.146Z,100721.94
2022-08-17T01:31:36.367Z,100716.63
2022-08-17T01:34:08.327Z,100730.72
2022-08-17T01:36:37.144Z,100736.88
2022-08-17T01:39:10.873Z,100738.72
2022-08-17T01:41:41.545Z,100717.47
2022-08-17T01:44:10.793Z,100725.50
2022-08-17T01:46:39.042Z,100722.03
2022-08-17T01:49:09.108Z,100722.03
2022-08-17T01:51:37.337Z,100732.59
2022-08-17T01:54:11.626Z,100718.53
2022-08-17T01:56:42.882Z,100731.84
2022-08-17T01:59:10.819Z,100731.03
2022-08-17T02:01:39.117Z,100734.53
2022-08-17T02:04:08.459Z,100731.06
2022-08-17T02:06:52.661Z,100721.41
2022-08-17T02:09:25.333Z,100720.47
2022-08-17T02:11:54.819Z,100680.06
2022-08-17T02:14:25.292Z,100724.97
2022-08-17T02:16:53.384Z,100724.09
2022-08-17T02:19:22.081Z,100734.75
2022-08-17T02:21:52.957Z,100697.78
2022-08-17T02:24:58.499Z,100703.06
2022-08-17T02:27:16.651Z,100674.06
2022-08-17T02:29:44.641Z,100732.16
2022-08-17T02:32:22.275Z,100742.84
2022-08-17T02:34:55.728Z,100742.00
2022-08-17T02:37:23.821Z,100734.97
2022-08-17T02:39:53.351Z,100733.19
2022-08-17T02:42:27.878Z,100734.97
2022-08-17T02:44:55.922Z,100737.69
2022-08-17T02:47:24.635Z,100735.94
2022-08-17T02:49:54.287Z,100740.41
2022-08-17T02:52:42.473Z,100744.88
2022-08-17T02:55:16.310Z,100729.13
2022-08-17T02:57:44.270Z,100744.94
2022-08-17T03:00:15.590Z,100742.25
2022-08-17T03:02:45.414Z,100710.50
2022-08-17T03:05:16.294Z,100743.06
2022-08-17T03:07:44.352Z,100730.78
2022-08-17T03:10:14.422Z,100735.13
2022-08-17T03:12:43.788Z,100723.66
2022-08-17T03:15:14.050Z,100738.75
2022-08-17T03:17:42.401Z,100738.00
2022-08-17T03:20:11.407Z,100742.47
2022-08-17T03:22:41.346Z,100742.53
2022-08-17T03:25:20.170Z,100739.00
2022-08-17T03:27:51.516Z,100731.06
2022-08-17T03:30:22.511Z,100750.56
2022-08-17T03:32:56.216Z,100715.34
2022-08-17T03:35:26.630Z,100764.75
2022-08-17T03:38:00.062Z,100739.97
2022-08-17T03:40:43.780Z,100754.88
2022-08-17T03:43:20.071Z,100748.69
2022-08-17T03:46:23.997Z,100739.84
2022-08-17T03:49:12.046Z,100736.31
2022-08-17T03:51:57.647Z,100730.94
2022-08-17T03:54:42.964Z,100733.56
2022-08-17T03:57:13.523Z,100741.50
2022-08-17T03:59:42.003Z,100744.19
2022-08-17T04:02:13.526Z,100730.03
2022-08-17T04:04:41.786Z,100722.97
2022-08-17T04:07:09.705Z,100743.22
2022-08-17T04:09:38.023Z,100743.16
2022-08-17T04:12:07.231Z,100745.78
2022-08-17T04:14:51.637Z,100718.44
2022-08-17T04:17:22.580Z,100749.31
2022-08-17T04:19:50.498Z,100706.13
2022-08-17T04:22:32.049Z,100752.00
2022-08-17T04:25:09.013Z,100749.31
2022-08-17T04:27:37.514Z,100700.09
2022-08-17T04:30:08.425Z,100752.91
2022-08-17T04:33:09.852Z,100749.41
2022-08-17T04:35:39.978Z,100757.25
2022-08-17T04:38:12.276Z,100722.94
2022-08-17T04:40:58.270Z,100742.22
2022-08-17T04:43:28.304Z,100769.69
2022-08-17T04:46:00.265Z,100752.94
2022-08-17T04:48:36.233Z,100766.22
2022-08-17T04:51:08.015Z,100754.75
2022-08-17T04:53:36.517Z,100763.53
2022-08-17T04:56:05.315Z,100754.69
2022-08-17T04:58:33.758Z,100765.19
2022-08-17T05:01:03.432Z,100751.84
2022-08-17T05:03:32.612Z,100729.00
2022-08-17T05:06:00.680Z,100744.81
2022-08-17T05:08:28.693Z,100749.22
2022-08-17T05:10:56.873Z,100743.88
2022-08-17T05:13:26.357Z,100757.09
2022-08-17T05:15:57.163Z,100753.50
2022-08-17T05:18:26.677Z,100760.53
2022-08-17T05:20:55.048Z,100751.69
2022-08-17T05:23:25.135Z,100750.81
2022-08-17T05:25:56.390Z,100755.28
2022-08-17T05:28:28.000Z,100756.28
2022-08-17T05:30:59.374Z,100760.69
2022-08-17T05:33:31.442Z,100755.41
2022-08-17T05:36:00.887Z,100763.41
2022-08-17T05:38:30.735Z,100758.19
2022-08-17T05:40:59.797Z,100742.41
2022-08-17T05:43:30.116Z,100756.47
2022-08-17T05:46:05.384Z,100760.00
2022-08-17T05:48:40.170Z,100758.16
2022-08-17T05:51:22.089Z,100761.75
2022-08-17T05:53:59.661Z,100762.66
2022-08-17T05:56:50.233Z,100769.69
2022-08-17T05:59:27.812Z,100770.53
2022-08-17T06:02:04.189Z,100765.34
2022-08-17T06:04:45.378Z,100770.59
2022-08-17T06:07:22.806Z,100779.28
2022-08-17T06:09:58.694Z,100772.94
2022-08-17T06:12:38.690Z,100785.94
2022-08-17T06:15:24.654Z,100776.91
2022-08-17T06:17:55.847Z,100782.81
2022-08-17T06:20:28.314Z,100787.06
2022-08-17T06:23:03.885Z,100786.94
2022-08-17T06:25:36.015Z,100764.88
2022-08-17T06:28:07.288Z,100790.94
2022-08-17T06:30:59.944Z,100805.81
2022-08-17T06:33:34.418Z,100800.34
2022-08-17T06:36:10.246Z,100802.94
2022-08-17T06:38:52.110Z,100811.84
2022-08-17T06:41:27.616Z,100799.13
2022-08-17T06:44:07.665Z,100801.34
2022-08-17T06:46:39.329Z,100792.97
2022-08-17T06:49:17.881Z,100796.91
2022-08-17T06:51:52.586Z,100802.94
2022-08-17T06:54:30.070Z,100807.97
2022-08-17T06:57:01.801Z,100797.28
2022-08-17T06:59:55.018Z,100803.75
2022-08-17T07:02:52.431Z,100797.72
2022-08-17T07:05:24.874Z,100799.47
2022-08-17T07:08:05.204Z,100802.66
2022-08-17T07:10:39.647Z,100801.31
2022-08-17T07:13:30.703Z,100783.81
2022-08-17T07:16:14.826Z,100801.41
2022-08-17T07:18:43.780Z,100786.53
2022-08-17T07:21:26.534Z,100793.38
2022-08-17T07:24:08.065Z,100799.91
2022-08-17T07:26:36.004Z,100799.47
2022-08-17T07:29:04.029Z,100804.44
2022-08-17T07:31:33.660Z,100814.19
2022-08-17T07:34:08.525Z,100801.03
2022-08-17T07:36:36.449Z,100806.72
2022-08-17T07:39:06.168Z,100812.25
2022-08-17T07:41:57.895Z,100813.19
2022-08-17T07:44:27.677Z,100799.69
2022-08-17T07:47:14.621Z,100800.97
2022-08-17T07:49:46.107Z,100805.34
2022-08-17T07:52:48.063Z,100805.63
2022-08-17T07:55:29.619Z,100797.59
2022-08-17T07:57:59.089Z,100812.47
2022-08-17T08:00:32.648Z,100791.34
2022-08-17T08:03:16.101Z,100812.47
2022-08-17T08:05:56.398Z,100803.91
2022-08-17T08:08:29.299Z,100795.72
2022-08-17T08:11:07.145Z,100797.72
2022-08-17T08:13:42.536Z,100794.28
2022-08-17T08:16:22.611Z,100809.84
2022-08-17T08:18:57.570Z,100799.44
2022-08-17T08:21:34.511Z,100796.38
2022-08-17T08:24:19.913Z,100797.38
2022-08-17T08:26:58.050Z,100797.59
2022-08-17T08:29:35.745Z,100791.44
2022-08-17T08:32:11.373Z,100793.75
2022-08-17T08:35:01.525Z,100786.13
2022-08-17T08:37:43.007Z,100791.63
2022-08-17T08:40:29.952Z,100792.31
2022-08-17T08:43:09.357Z,100792.97
2022-08-17T08:45:47.133Z,100791.22
2022-08-17T08:48:58.303Z,100796.63
2022-08-17T08:51:39.866Z,100803.94
2022-08-17T08:54:20.240Z,100799.78
2022-08-17T08:57:23.173Z,100800.31
2022-08-17T09:00:05.443Z,100808.78
2022-08-17T09:02:57.715Z,100808.34
2022-08-17T09:05:39.328Z,100809.81
2022-08-17T09:08:31.989Z,100816.06
2022-08-17T09:11:06.055Z,100795.34
2022-08-17T09:13:44.398Z,100821.38
2022-08-17T09:16:20.228Z,100805.56
2022-08-17T09:19:03.265Z,100798.88
2022-08-17T09:21:48.468Z,100808.63
2022-08-17T09:24:24.253Z,100818.22
2022-08-17T09:27:00.005Z,100823.38
2022-08-17T09:29:32.550Z,100821.72
2022-08-17T09:32:03.902Z,100809.56
2022-08-17T09:34:36.502Z,100824.78
2022-08-17T09:37:18.969Z,100825.94
2022-08-17T09:39:56.591Z,100832.88
2022-08-17T09:42:31.115Z,100822.63
2022-08-17T09:45:08.687Z,100839.63
2022-08-17T09:47:45.519Z,100837.28
2022-08-17T09:51:05.262Z,100833.38
2022-08-17T09:53:10.287Z,100833.34
2022-08-17T09:56:04.281Z,100825.88
2022-08-17T09:58:47.651Z,100831.88
2022-08-17T10:01:31.591Z,100828.50
2022-08-17T10:04:29.290Z,100821.06
2022-08-17T10:07:06.774Z,100831.22
2022-08-17T10:09:45.672Z,100828.16
2022-08-17T10:12:29.988Z,100833.78
2022-08-17T10:15:17.440Z,100825.78
2022-08-17T10:17:59.916Z,100820.91
2022-08-17T10:20:34.211Z,100829.72
2022-08-17T10:23:25.030Z,100823.94
2022-08-17T10:26:16.948Z,100822.44
2022-08-17T10:28:51.187Z,100827.56
2022-08-17T10:31:36.229Z,100828.19
2022-08-17T10:34:27.235Z,100821.97
2022-08-17T10:37:07.566Z,100824.38
2022-08-17T10:39:51.913Z,100827.44
2022-08-17T10:42:30.287Z,100831.03
2022-08-17T10:45:06.544Z,100836.88
2022-08-17T10:48:04.291Z,100837.84
2022-08-17T10:51:08.940Z,100825.09
2022-08-17T10:53:58.862Z,100823.66
2022-08-17T10:56:45.214Z,100817.34
2022-08-17T10:59:55.418Z,100804.50
2022-08-17T11:02:31.612Z,100825.44
2022-08-17T11:05:15.806Z,100834.28
2022-08-17T11:08:05.619Z,100828.00
2022-08-17T11:10:52.342Z,100816.00
2022-08-17T11:13:33.774Z,100827.59
2022-08-17T11:16:18.593Z,100828.94
2022-08-17T11:19:10.294Z,100830.25
2022-08-17T11:22:00.949Z,100829.28
2022-08-17T11:24:37.052Z,100830.19
2022-08-17T11:27:12.110Z,100833.88
2022-08-17T11:29:58.087Z,100836.31
2022-08-17T11:32:37.691Z,100832.72
2022-08-17T11:35:22.593Z,100831.47
2022-08-17T11:38:02.878Z,100812.56
2022-08-17T11:41:04.406Z,100799.75
2022-08-17T11:44:16.558Z,100791.72
2022-08-17T11:47:16.775Z,100794.94
2022-08-17T11:50:21.632Z,100828.09
2022-08-17T11:52:52.691Z,100816.19
2022-08-17T11:55:54.026Z,100821.75
2022-08-17T11:58:40.087Z,100812.50
2022-08-17T12:01:09.672Z,100808.06
2022-08-17T12:03:55.642Z,100817.97
2022-08-17T12:06:54.833Z,100798.97
2022-08-17T12:09:26.416Z,100813.00
2022-08-17T12:12:13.374Z,100821.19
2022-08-17T12:17:40.939Z,100809.09
2022-08-17T12:20:15.276Z,100810.97
2022-08-17T12:22:54.818Z,100678.22
2022-08-17T12:25:33.253Z,100811.97
2022-08-17T12:28:06.030Z,100794.38
2022-08-17T12:30:36.581Z,100687.16
2022-08-17T12:33:04.660Z,100783.16
2022-08-17T12:35:35.170Z,100794.09
2022-08-17T12:38:32.164Z,100776.38
2022-08-17T12:40:59.618Z,100778.94
2022-08-17T12:43:33.007Z,100773.09
2022-08-17T12:46:12.956Z,100771.66
2022-08-17T12:48:59.954Z,100773.88
2022-08-17T12:51:29.994Z,100770.31
2022-08-17T12:53:59.628Z,100771.97
2022-08-17T12:56:27.452Z,100764.59
2022-08-17T12:58:55.602Z,100778.03
2022-08-17T13:01:26.105Z,100732.38
2022-08-17T13:03:59.734Z,100768.91
2022-08-17T13:06:31.595Z,100777.44
2022-08-17T13:09:10.740Z,100784.00
2022-08-17T13:11:48.107Z,100784.03
2022-08-17T13:14:18.406Z,100733.94
2022-08-17T13:16:53.677Z,100789.41
2022-08-17T13:19:32.958Z,100800.31
2022-08-17T13:22:12.484Z,100799.75
2022-08-17T13:24:53.221Z,100792.63
2022-08-17T13:27:23.627Z,100753.31
2022-08-17T13:29:55.805Z,100771.53
2022-08-17T13:32:35.112Z,100779.97
2022-08-17T13:35:28.372Z,100776.41
2022-08-17T13:38:02.488Z,100724.13
2022-08-17T13:40:37.704Z,100743.66
2022-08-17T13:43:06.335Z,100782.41
2022-08-17T13:45:50.639Z,100795.66
2022-08-17T13:48:28.393Z,100782.84
2022-08-17T13:51:15.232Z,100803.00
2022-08-17T13:54:02.246Z,100805.53
2022-08-17T13:56:52.817Z,100807.00
2022-08-17T13:59:52.748Z,100796.97
2022-08-17T14:02:20.524Z,100803.53
2022-08-17T14:04:49.390Z,100804.94
2022-08-17T14:07:29.470Z,100791.28
2022-08-17T14:10:01.371Z,100791.38
2022-08-17T14:12:34.278Z,100803.69
2022-08-17T14:15:03.170Z,100805.25
2022-08-17T14:17:37.954Z,100798.94
2022-08-17T14:20:09.369Z,100798.19
2022-08-17T14:22:39.825Z,100807.84
2022-08-17T14:25:10.616Z,100765.41
2022-08-17T14:27:47.121Z,100774.63
2022-08-17T14:30:23.958Z,100805.06
2022-08-17T14:32:52.876Z,100795.72
2022-08-17T14:35:23.250Z,100791.66
2022-08-17T14:37:51.561Z,100793.06
2022-08-17T14:40:25.160Z,100795.34
2022-08-17T14:42:56.025Z,100803.59
2022-08-17T14:45:32.892Z,100802.50
2022-08-17T14:48:04.062Z,100804.50
2022-08-17T14:50:35.457Z,100779.63
2022-08-17T14:53:04.616Z,100806.63
2022-08-17T14:55:32.843Z,100797.81
2022-08-17T14:58:04.005Z,100803.72
2022-08-17T15:00:32.116Z,100807.34
2022-08-17T15:03:01.636Z,100822.28
2022-08-17T15:05:35.130Z,100809.16
2022-08-17T15:08:04.605Z,100812.91
2022-08-17T15:10:33.015Z,100818.44
2022-08-17T15:13:02.487Z,100817.75
2022-08-17T15:15:31.302Z,100811.38
2022-08-17T15:17:59.871Z,100813.75
2022-08-17T15:20:30.037Z,100815.31
2022-08-17T15:22:59.337Z,100807.69
2022-08-17T15:25:29.527Z,100810.72
2022-08-17T15:27:57.554Z,100821.91
2022-08-17T15:30:27.416Z,100822.22
2022-08-17T15:32:55.847Z,100812.66
2022-08-17T15:35:27.784Z,100816.16
2022-08-17T15:37:57.991Z,100833.00
2022-08-17T15:40:26.256Z,100833.81
2022-08-17T15:42:54.268Z,100831.81
2022-08-17T15:45:24.838Z,100793.31
2022-08-17T15:47:54.351Z,100834.91
2022-08-17T15:50:22.480Z,100832.16
2022-08-17T15:52:58.116Z,100833.47
2022-08-17T15:55:27.993Z,100831.44
2022-08-17T15:57:56.051Z,100841.28
2022-08-17T16:00:24.908Z,100807.19
2022-08-17T16:03:44.716Z,100835.72
2022-08-17T16:05:42.681Z,100851.34
2022-08-17T16:08:11.095Z,100843.97
2022-08-17T16:10:39.186Z,100856.63
2022-08-17T16:13:17.826Z,100857.84
2022-08-17T16:15:56.622Z,100869.84
2022-08-17T16:18:31.093Z,100834.44
2022-08-17T16:21:21.481Z,100861.13
2022-08-17T16:23:51.499Z,100879.13
2022-08-17T16:26:19.882Z,100874.09
2022-08-17T16:28:47.811Z,100883.56
2022-08-17T16:31:16.755Z,100880.53
2022-08-17T16:34:15.530Z,100891.81
2022-08-17T16:36:35.919Z,100890.75
2022-08-17T16:39:04.735Z,100887.16
2022-08-17T16:41:45.310Z,100886.81
2022-08-17T16:44:15.552Z,100882.72
2022-08-17T16:46:45.408Z,100886.47
2022-08-17T16:49:35.509Z,100894.41
2022-08-17T16:52:05.819Z,100862.06
2022-08-17T16:54:35.759Z,100897.69
2022-08-17T16:57:05.238Z,100895.09
2022-08-17T16:59:42.162Z,100893.34
2022-08-17T17:02:13.891Z,100897.78
2022-08-17T17:04:53.340Z,100897.31
2022-08-17T17:07:39.391Z,100905.38
2022-08-17T17:10:11.885Z,100906.47
2022-08-17T17:13:02.899Z,100901.22
2022-08-17T17:15:38.229Z,100888.81
2022-08-17T17:18:07.855Z,100924.19
2022-08-17T17:20:45.783Z,100923.44
2022-08-17T17:23:28.869Z,100925.13
2022-08-17T17:26:04.073Z,100928.94
2022-08-17T17:28:44.320Z,100922.06
2022-08-17T17:31:15.639Z,100927.41
2022-08-17T17:33:48.380Z,100924.00
2022-08-17T17:36:25.533Z,100929.03
2022-08-17T17:38:57.495Z,100933.81
2022-08-17T17:41:35.267Z,100886.75
2022-08-17T17:44:07.981Z,100935.94
2022-08-17T17:46:39.368Z,100888.56
2022-08-17T17:49:10.256Z,100949.66
2022-08-17T17:52:07.900Z,100918.09
2022-08-17T17:54:54.089Z,100943.81
2022-08-17T17:57:30.329Z,100935.03
2022-08-17T18:00:08.263Z,100939.59
2022-08-17T18:02:52.232Z,100936.94
2022-08-17T18:05:41.710Z,100943.50
2022-08-17T18:08:52.873Z,100955.28
2022-08-17T18:11:35.160Z,100956.41
2022-08-17T18:14:15.426Z,100952.91
2022-08-17T18:16:44.116Z,100947.75
2022-08-17T18:19:15.157Z,100962.19
2022-08-17T18:21:47.028Z,100949.09
2022-08-17T18:24:17.264Z,100965.25
2022-08-17T18:26:55.092Z,100970.84
2022-08-17T18:29:45.432Z,100972.88
2022-08-17T18:32:37.844Z,100966.78
2022-08-17T18:35:30.138Z,100977.00
2022-08-17T18:38:20.337Z,100976.50
2022-08-17T18:41:00.264Z,100959.19
2022-08-17T18:43:43.835Z,100973.41
2022-08-17T18:46:30.407Z,100968.50
2022-08-17T18:49:01.142Z,100993.50
2022-08-17T18:51:40.804Z,100992.66
2022-08-17T18:54:22.895Z,100991.97
2022-08-17T18:56:54.842Z,101001.84
2022-08-17T18:59:28.977Z,101002.06
2022-08-17T19:02:36.102Z,101005.72
2022-08-17T19:05:13.591Z,101015.56
2022-08-17T19:07:44.218Z,100997.97
2022-08-17T19:10:19.410Z,101004.13
2022-08-17T19:12:52.806Z,101013.03
2022-08-17T19:15:28.400Z,101018.44
2022-08-17T19:18:01.777Z,101007.91
2022-08-17T19:20:33.947Z,100973.63
2022-08-17T19:23:08.018Z,101026.56
2022-08-17T19:25:39.820Z,101017.84
2022-08-17T19:28:22.321Z,101024.00
2022-08-17T19:30:55.869Z,101049.00
2022-08-17T19:33:24.161Z,101025.84
2022-08-17T19:36:03.137Z,101025.03
2022-08-17T19:38:50.238Z,101031.34
2022-08-17T19:41:26.257Z,101026.88
2022-08-17T19:44:09.568Z,101025.97
2022-08-17T19:46:48.617Z,101027.78
2022-08-17T19:49:32.932Z,100994.44
2022-08-17T19:52:16.796Z,101002.69
2022-08-17T19:54:52.421Z,101038.97
2022-08-17T19:57:29.251Z,100934.41
2022-08-17T20:00:03.371Z,101041.31
2022-08-17T20:02:37.810Z,101042.38
2022-08-17T20:05:12.627Z,101046.81
2022-08-17T20:07:46.553Z,101050.44
2022-08-17T20:10:21.588Z,101042.53
2022-08-17T20:12:53.381Z,101026.69
2022-08-17T20:15:28.400Z,101011.81
2022-08-17T20:18:01.010Z,101021.69
2022-08-17T20:20:35.920Z,101033.19
2022-08-17T20:23:11.666Z,101035.94
2022-08-17T20:25:47.241Z,101013.94
2022-08-17T20:28:24.092Z,101038.59
2022-08-17T20:30:53.676Z,101063.25
2022-08-17T20:33:27.586Z,101070.31
2022-08-17T20:36:13.108Z,101068.44
2022-08-17T20:38:44.612Z,101079.91
2022-08-17T20:41:16.631Z,101070.09
2022-08-17T20:43:51.211Z,101033.06
2022-08-17T20:46:45.016Z,101023.44
2022-08-17T20:49:24.291Z,101048.28
2022-08-17T20:52:01.538Z,101011.41
2022-08-17T20:54:49.660Z,101082.19
2022-08-17T20:57:48.904Z,101084.84
2022-08-17T21:00:51.332Z,101088.47
2022-08-17T21:03:51.085Z,101097.41
2022-08-17T21:06:22.827Z,101085.09
2022-08-17T21:08:57.995Z,101067.50
2022-08-17T21:12:03.289Z,101029.63
2022-08-17T21:14:45.738Z,101083.44
2022-08-17T21:17:31.252Z,101090.34
2022-08-17T21:20:11.975Z,101092.91
2022-08-17T21:22:53.301Z,100995.03
2022-08-17T21:25:48.222Z,101087.56
2022-08-17T21:28:30.112Z,101100.84
2022-08-17T21:31:09.230Z,101086.78
2022-08-17T21:33:39.132Z,101007.38
2022-08-17T21:36:26.141Z,101105.25
2022-08-17T21:39:01.543Z,101102.50
2022-08-17T21:41:33.443Z,101114.91
2022-08-17T21:44:07.528Z,101088.34
2022-08-17T21:46:39.740Z,101107.72
2022-08-17T21:49:13.514Z,101071.59
2022-08-17T21:51:46.490Z,101112.16
2022-08-17T21:54:34.805Z,101115.75
2022-08-17T21:57:05.594Z,101105.94
2022-08-17T21:59:36.675Z,101119.31
2022-08-17T22:02:08.926Z,101106.84
2022-08-17T22:04:38.871Z,101121.22
2022-08-17T22:07:10.943Z,101093.94
2022-08-17T22:09:43.577Z,101124.00
2022-08-17T22:12:13.702Z,101122.28
2022-08-17T22:14:52.466Z,101120.53
2022-08-17T22:17:25.360Z,101093.28
2022-08-17T22:19:56.419Z,101103.94
2022-08-17T22:22:35.208Z,101124.34
2022-08-17T22:25:08.056Z,101127.09
2022-08-17T22:27:50.675Z,101057.56
2022-08-17T22:30:31.733Z,101137.03
2022-08-17T22:33:00.647Z,101125.66
2022-08-17T22:35:40.933Z,101132.63
2022-08-17T22:38:33.333Z,101121.22
2022-08-17T22:41:18.075Z,101139.75
2022-08-17T22:43:46.264Z,101140.63
2022-08-17T22:46:15.004Z,101144.22
2022-08-17T22:48:48.925Z,101151.34
2022-08-17T22:51:21.645Z,101159.34
2022-08-17T22:54:11.504Z,101157.63
2022-08-17T22:57:05.466Z,101121.53
2022-08-17T22:59:39.266Z,101113.72
2022-08-17T23:02:15.143Z,101160.59
2022-08-17T23:04:45.658Z,101160.63
2022-08-17T23:07:13.576Z,101161.50
2022-08-17T23:09:42.983Z,101154.47
2022-08-17T23:12:15.003Z,101165.16
2022-08-17T23:14:46.006Z,101126.28
2022-08-17T23:17:14.458Z,101072.53
2022-08-17T23:19:42.869Z,101167.94
2022-08-17T23:22:12.440Z,101179.59
2022-08-17T23:24:45.322Z,101142.66
2022-08-17T23:27:14.153Z,101099.47
2022-08-17T23:29:42.497Z,101127.03
2022-08-17T23:32:13.951Z,101181.78
2022-08-17T23:34:44.319Z,101161.44
2022-08-17T23:37:13.198Z,101170.09
2022-08-17T23:39:45.151Z,101176.25
2022-08-17T23:42:16.516Z,101170.94
2022-08-17T23:44:44.775Z,101171.88
2022-08-17T23:47:13.106Z,101171.91
2022-08-17T23:49:41.385Z,101162.13
2022-08-17T23:52:12.683Z,101166.66
2022-08-17T23:54:47.674Z,101168.53
2022-08-17T23:57:17.780Z,101143.88
2022-08-17T23:59:48.874Z,101135.16
